sensor_id;sensor_type;location;lat;lon;timestamp;P1;durP1;ratioP1;P2;durP2;ratioP2
71769;SDS011;66386;52.122;5.420;2023-10-09T00:00:35;31.02;;;13.70;;
71769;SDS011;66386;52.122;5.420;2023-10-09T00:03:04;37.08;;;15.35;;
71769;SDS011;66386;52.122;5.420;2023-10-09T00:05:33;31.05;;;14.20;;
71769;SDS011;66386;52.122;5.420;2023-10-09T00:08:12;29.17;;;14.30;;
71769;SDS011;66386;52.122;5.420;2023-10-09T00:10:44;34.77;;;15.00;;
71769;SDS011;66386;52.122;5.420;2023-10-09T00:13:24;28.48;;;13.95;;
71769;SDS011;66386;52.122;5.420;2023-10-09T00:15:55;33.78;;;14.55;;
71769;SDS011;66386;52.122;5.420;2023-10-09T00:18:27;33.10;;;15.70;;
71769;SDS011;66386;52.122;5.420;2023-10-09T00:20:59;35.08;;;14.80;;
71769;SDS011;66386;52.122;5.420;2023-10-09T00:23:38;30.50;;;13.77;;
71769;SDS011;66386;52.122;5.420;2023-10-09T00:26:07;32.60;;;15.38;;
71769;SDS011;66386;52.122;5.420;2023-10-09T00:28:35;31.02;;;14.02;;
71769;SDS011;66386;52.122;5.420;2023-10-09T00:31:04;26.33;;;13.75;;
71769;SDS011;66386;52.122;5.420;2023-10-09T00:33:33;35.55;;;15.35;;
71769;SDS011;66386;52.122;5.420;2023-10-09T00:36:04;29.37;;;14.17;;
71769;SDS011;66386;52.122;5.420;2023-10-09T00:38:37;27.73;;;13.48;;
71769;SDS011;66386;52.122;5.420;2023-10-09T00:41:06;30.65;;;14.32;;
71769;SDS011;66386;52.122;5.420;2023-10-09T00:43:32;30.92;;;14.23;;
71769;SDS011;66386;52.122;5.420;2023-10-09T00:46:02;34.85;;;14.23;;
71769;SDS011;66386;52.122;5.420;2023-10-09T00:48:30;28.93;;;14.70;;
71769;SDS011;66386;52.122;5.420;2023-10-09T00:51:00;28.15;;;15.35;;
71769;SDS011;66386;52.122;5.420;2023-10-09T00:53:27;32.65;;;15.38;;
71769;SDS011;66386;52.122;5.420;2023-10-09T00:55:59;34.00;;;15.02;;
71769;SDS011;66386;52.122;5.420;2023-10-09T00:58:56;33.33;;;14.70;;
71769;SDS011;66386;52.122;5.420;2023-10-09T01:01:53;27.47;;;14.33;;
71769;SDS011;66386;52.122;5.420;2023-10-09T01:04:31;31.23;;;14.55;;
71769;SDS011;66386;52.122;5.420;2023-10-09T01:06:58;31.80;;;14.63;;
71769;SDS011;66386;52.122;5.420;2023-10-09T01:09:57;26.70;;;13.98;;
71769;SDS011;66386;52.122;5.420;2023-10-09T01:12:25;30.42;;;14.13;;
71769;SDS011;66386;52.122;5.420;2023-10-09T01:14:55;30.00;;;14.23;;
71769;SDS011;66386;52.122;5.420;2023-10-09T01:17:22;28.95;;;13.38;;
71769;SDS011;66386;52.122;5.420;2023-10-09T01:20:11;28.90;;;13.90;;
71769;SDS011;66386;52.122;5.420;2023-10-09T01:22:53;32.83;;;14.38;;
71769;SDS011;66386;52.122;5.420;2023-10-09T01:25:22;29.50;;;15.18;;
71769;SDS011;66386;52.122;5.420;2023-10-09T01:27:48;28.17;;;14.07;;
71769;SDS011;66386;52.122;5.420;2023-10-09T01:30:14;29.63;;;14.38;;
71769;SDS011;66386;52.122;5.420;2023-10-09T01:32:41;34.10;;;14.13;;
71769;SDS011;66386;52.122;5.420;2023-10-09T01:35:11;29.50;;;14.27;;
71769;SDS011;66386;52.122;5.420;2023-10-09T01:37:46;26.65;;;13.68;;
71769;SDS011;66386;52.122;5.420;2023-10-09T01:40:17;24.33;;;13.27;;
71769;SDS011;66386;52.122;5.420;2023-10-09T01:43:03;34.65;;;14.40;;
71769;SDS011;66386;52.122;5.420;2023-10-09T01:45:30;27.55;;;13.95;;
71769;SDS011;66386;52.122;5.420;2023-10-09T01:48:08;29.55;;;14.45;;
71769;SDS011;66386;52.122;5.420;2023-10-09T01:50:35;27.88;;;14.05;;
71769;SDS011;66386;52.122;5.420;2023-10-09T01:53:03;26.83;;;13.00;;
71769;SDS011;66386;52.122;5.420;2023-10-09T01:55:32;23.58;;;13.48;;
71769;SDS011;66386;52.122;5.420;2023-10-09T01:58:04;27.02;;;12.95;;
71769;SDS011;66386;52.122;5.420;2023-10-09T02:00:50;29.05;;;14.57;;
71769;SDS011;66386;52.122;5.420;2023-10-09T02:03:28;29.23;;;13.63;;
71769;SDS011;66386;52.122;5.420;2023-10-09T02:05:56;26.70;;;13.33;;
71769;SDS011;66386;52.122;5.420;2023-10-09T02:08:44;28.30;;;14.43;;
71769;SDS011;66386;52.122;5.420;2023-10-09T02:11:16;25.35;;;12.98;;
71769;SDS011;66386;52.122;5.420;2023-10-09T02:13:51;27.95;;;13.80;;
71769;SDS011;66386;52.122;5.420;2023-10-09T02:16:21;23.20;;;13.60;;
71769;SDS011;66386;52.122;5.420;2023-10-09T02:18:55;24.43;;;13.07;;
71769;SDS011;66386;52.122;5.420;2023-10-09T02:21:25;26.10;;;13.38;;
71769;SDS011;66386;52.122;5.420;2023-10-09T02:24:06;23.40;;;13.50;;
71769;SDS011;66386;52.122;5.420;2023-10-09T02:26:35;22.83;;;13.05;;
71769;SDS011;66386;52.122;5.420;2023-10-09T02:29:05;25.15;;;13.57;;
71769;SDS011;66386;52.122;5.420;2023-10-09T02:31:41;26.70;;;13.80;;
71769;SDS011;66386;52.122;5.420;2023-10-09T02:34:13;27.65;;;13.82;;
71769;SDS011;66386;52.122;5.420;2023-10-09T02:36:43;30.63;;;13.07;;
71769;SDS011;66386;52.122;5.420;2023-10-09T02:39:15;24.23;;;12.98;;
71769;SDS011;66386;52.122;5.420;2023-10-09T02:41:56;23.00;;;13.27;;
71769;SDS011;66386;52.122;5.420;2023-10-09T02:44:41;23.67;;;13.00;;
71769;SDS011;66386;52.122;5.420;2023-10-09T02:47:16;21.42;;;12.65;;
71769;SDS011;66386;52.122;5.420;2023-10-09T02:49:47;25.52;;;13.40;;
71769;SDS011;66386;52.122;5.420;2023-10-09T02:52:17;23.70;;;13.10;;
71769;SDS011;66386;52.122;5.420;2023-10-09T02:54:56;22.67;;;12.95;;
71769;SDS011;66386;52.122;5.420;2023-10-09T02:57:27;23.07;;;13.43;;
71769;SDS011;66386;52.122;5.420;2023-10-09T03:00:03;25.35;;;13.15;;
71769;SDS011;66386;52.122;5.420;2023-10-09T03:02:35;20.60;;;12.25;;
71769;SDS011;66386;52.122;5.420;2023-10-09T03:05:06;23.52;;;12.20;;
71769;SDS011;66386;52.122;5.420;2023-10-09T03:07:38;20.58;;;11.40;;
71769;SDS011;66386;52.122;5.420;2023-10-09T03:10:08;29.27;;;12.70;;
71769;SDS011;66386;52.122;5.420;2023-10-09T03:12:36;22.42;;;11.55;;
71769;SDS011;66386;52.122;5.420;2023-10-09T03:15:03;21.27;;;12.90;;
71769;SDS011;66386;52.122;5.420;2023-10-09T03:17:34;23.77;;;12.32;;
71769;SDS011;66386;52.122;5.420;2023-10-09T03:20:04;19.25;;;11.30;;
71769;SDS011;66386;52.122;5.420;2023-10-09T03:22:38;22.37;;;11.97;;
71769;SDS011;66386;52.122;5.420;2023-10-09T03:25:05;22.15;;;11.80;;
71769;SDS011;66386;52.122;5.420;2023-10-09T03:27:39;25.35;;;11.90;;
71769;SDS011;66386;52.122;5.420;2023-10-09T03:30:12;19.35;;;9.98;;
71769;SDS011;66386;52.122;5.420;2023-10-09T03:32:44;20.60;;;10.63;;
71769;SDS011;66386;52.122;5.420;2023-10-09T03:35:13;21.30;;;11.10;;
71769;SDS011;66386;52.122;5.420;2023-10-09T03:37:43;22.35;;;10.93;;
71769;SDS011;66386;52.122;5.420;2023-10-09T03:40:10;20.90;;;11.75;;
71769;SDS011;66386;52.122;5.420;2023-10-09T03:42:44;20.45;;;10.57;;
71769;SDS011;66386;52.122;5.420;2023-10-09T03:45:11;17.98;;;10.57;;
71769;SDS011;66386;52.122;5.420;2023-10-09T03:47:44;20.80;;;11.20;;
71769;SDS011;66386;52.122;5.420;2023-10-09T03:50:14;19.92;;;11.00;;
71769;SDS011;66386;52.122;5.420;2023-10-09T03:52:53;23.58;;;11.18;;
71769;SDS011;66386;52.122;5.420;2023-10-09T03:55:21;18.58;;;10.00;;
71769;SDS011;66386;52.122;5.420;2023-10-09T03:57:55;16.48;;;9.60;;
71769;SDS011;66386;52.122;5.420;2023-10-09T04:00:23;19.70;;;9.47;;
71769;SDS011;66386;52.122;5.420;2023-10-09T04:02:55;17.95;;;9.38;;
71769;SDS011;66386;52.122;5.420;2023-10-09T04:05:24;18.70;;;9.70;;
71769;SDS011;66386;52.122;5.420;2023-10-09T04:07:52;15.85;;;9.63;;
71769;SDS011;66386;52.122;5.420;2023-10-09T04:10:24;20.25;;;10.07;;
71769;SDS011;66386;52.122;5.420;2023-10-09T04:13:10;17.80;;;9.17;;
71769;SDS011;66386;52.122;5.420;2023-10-09T04:15:43;20.23;;;9.15;;
71769;SDS011;66386;52.122;5.420;2023-10-09T04:18:10;15.00;;;8.80;;
71769;SDS011;66386;52.122;5.420;2023-10-09T04:20:44;17.67;;;9.30;;
71769;SDS011;66386;52.122;5.420;2023-10-09T04:23:33;15.07;;;8.43;;
71769;SDS011;66386;52.122;5.420;2023-10-09T04:26:22;15.70;;;8.60;;
71769;SDS011;66386;52.122;5.420;2023-10-09T04:28:55;17.80;;;9.20;;
71769;SDS011;66386;52.122;5.420;2023-10-09T04:31:21;17.52;;;9.23;;
71769;SDS011;66386;52.122;5.420;2023-10-09T04:33:58;12.77;;;8.07;;
71769;SDS011;66386;52.122;5.420;2023-10-09T04:36:44;19.10;;;8.85;;
71769;SDS011;66386;52.122;5.420;2023-10-09T04:39:16;18.23;;;8.60;;
71769;SDS011;66386;52.122;5.420;2023-10-09T04:42:01;13.70;;;7.55;;
71769;SDS011;66386;52.122;5.420;2023-10-09T04:44:46;18.27;;;9.23;;
71769;SDS011;66386;52.122;5.420;2023-10-09T04:47:29;16.15;;;7.97;;
71769;SDS011;66386;52.122;5.420;2023-10-09T04:52:33;16.30;;;8.00;;
71769;SDS011;66386;52.122;5.420;2023-10-09T04:55:00;17.58;;;8.10;;
71769;SDS011;66386;52.122;5.420;2023-10-09T04:57:33;15.43;;;8.02;;
71769;SDS011;66386;52.122;5.420;2023-10-09T05:00:20;14.48;;;7.72;;
71769;SDS011;66386;52.122;5.420;2023-10-09T05:02:54;13.85;;;7.55;;
71769;SDS011;66386;52.122;5.420;2023-10-09T05:05:37;14.03;;;7.63;;
71769;SDS011;66386;52.122;5.420;2023-10-09T05:08:12;14.40;;;7.90;;
71769;SDS011;66386;52.122;5.420;2023-10-09T05:10:47;18.38;;;7.65;;
71769;SDS011;66386;52.122;5.420;2023-10-09T05:16:13;18.00;;;7.63;;
71769;SDS011;66386;52.122;5.420;2023-10-09T05:18:59;14.03;;;7.33;;
71769;SDS011;66386;52.122;5.420;2023-10-09T05:21:30;13.82;;;7.43;;
71769;SDS011;66386;52.122;5.420;2023-10-09T05:23:59;16.27;;;6.90;;
71769;SDS011;66386;52.122;5.420;2023-10-09T05:26:39;14.93;;;7.25;;
71769;SDS011;66386;52.122;5.420;2023-10-09T05:29:25;14.63;;;6.68;;
71769;SDS011;66386;52.122;5.420;2023-10-09T05:31:55;18.40;;;7.50;;
71769;SDS011;66386;52.122;5.420;2023-10-09T05:34:45;15.45;;;7.45;;
71769;SDS011;66386;52.122;5.420;2023-10-09T05:37:28;14.18;;;6.60;;
71769;SDS011;66386;52.122;5.420;2023-10-09T05:40:01;12.88;;;7.07;;
71769;SDS011;66386;52.122;5.420;2023-10-09T05:42:29;13.68;;;6.45;;
71769;SDS011;66386;52.122;5.420;2023-10-09T05:45:10;16.10;;;7.03;;
71769;SDS011;66386;52.122;5.420;2023-10-09T05:47:44;11.25;;;6.07;;
71769;SDS011;66386;52.122;5.420;2023-10-09T05:50:17;13.20;;;6.28;;
71769;SDS011;66386;52.122;5.420;2023-10-09T05:53:04;10.50;;;5.82;;
71769;SDS011;66386;52.122;5.420;2023-10-09T05:55:33;9.70;;;5.82;;
71769;SDS011;66386;52.122;5.420;2023-10-09T05:58:18;14.00;;;6.13;;
71769;SDS011;66386;52.122;5.420;2023-10-09T06:01:03;9.57;;;5.50;;
71769;SDS011;66386;52.122;5.420;2023-10-09T06:03:48;11.32;;;5.65;;
71769;SDS011;66386;52.122;5.420;2023-10-09T06:06:15;12.88;;;5.35;;
71769;SDS011;66386;52.122;5.420;2023-10-09T06:09:00;9.77;;;4.65;;
71769;SDS011;66386;52.122;5.420;2023-10-09T06:11:42;9.10;;;5.33;;
71769;SDS011;66386;52.122;5.420;2023-10-09T06:14:13;12.40;;;5.68;;
71769;SDS011;66386;52.122;5.420;2023-10-09T06:16:41;11.05;;;5.22;;
71769;SDS011;66386;52.122;5.420;2023-10-09T06:19:13;10.20;;;5.55;;
71769;SDS011;66386;52.122;5.420;2023-10-09T06:21:46;11.43;;;5.65;;
71769;SDS011;66386;52.122;5.420;2023-10-09T06:24:19;7.73;;;5.23;;
71769;SDS011;66386;52.122;5.420;2023-10-09T06:26:49;14.88;;;5.30;;
71769;SDS011;66386;52.122;5.420;2023-10-09T06:29:25;13.73;;;5.35;;
71769;SDS011;66386;52.122;5.420;2023-10-09T06:32:02;10.63;;;4.55;;
71769;SDS011;66386;52.122;5.420;2023-10-09T06:34:45;9.40;;;5.10;;
71769;SDS011;66386;52.122;5.420;2023-10-09T06:37:21;8.20;;;5.03;;
71769;SDS011;66386;52.122;5.420;2023-10-09T06:39:56;10.93;;;5.00;;
71769;SDS011;66386;52.122;5.420;2023-10-09T06:42:23;11.00;;;5.30;;
71769;SDS011;66386;52.122;5.420;2023-10-09T06:45:06;13.07;;;4.80;;
71769;SDS011;66386;52.122;5.420;2023-10-09T06:47:41;9.45;;;5.60;;
71769;SDS011;66386;52.122;5.420;2023-10-09T06:52:48;13.20;;;5.85;;
71769;SDS011;66386;52.122;5.420;2023-10-09T06:55:24;11.68;;;5.72;;
71769;SDS011;66386;52.122;5.420;2023-10-09T06:58:15;10.85;;;5.07;;
71769;SDS011;66386;52.122;5.420;2023-10-09T07:01:08;11.18;;;5.60;;
71769;SDS011;66386;52.122;5.420;2023-10-09T07:04:01;12.97;;;5.87;;
71769;SDS011;66386;52.122;5.420;2023-10-09T07:06:45;12.80;;;5.90;;
71769;SDS011;66386;52.122;5.420;2023-10-09T07:09:12;9.80;;;5.45;;
71769;SDS011;66386;52.122;5.420;2023-10-09T07:11:41;11.95;;;5.63;;
71769;SDS011;66386;52.122;5.420;2023-10-09T07:14:10;13.07;;;5.43;;
71769;SDS011;66386;52.122;5.420;2023-10-09T07:16:55;10.83;;;5.40;;
71769;SDS011;66386;52.122;5.420;2023-10-09T07:19:47;8.00;;;5.90;;
71769;SDS011;66386;52.122;5.420;2023-10-09T07:22:15;9.90;;;5.30;;
71769;SDS011;66386;52.122;5.420;2023-10-09T07:24:56;10.88;;;5.43;;
71769;SDS011;66386;52.122;5.420;2023-10-09T07:27:25;9.88;;;5.60;;
71769;SDS011;66386;52.122;5.420;2023-10-09T07:30:12;12.17;;;5.60;;
71769;SDS011;66386;52.122;5.420;2023-10-09T07:35:34;10.95;;;5.32;;
71769;SDS011;66386;52.122;5.420;2023-10-09T07:38:17;9.35;;;5.38;;
71769;SDS011;66386;52.122;5.420;2023-10-09T07:41:17;10.50;;;5.68;;
71769;SDS011;66386;52.122;5.420;2023-10-09T07:43:44;10.27;;;5.37;;
71769;SDS011;66386;52.122;5.420;2023-10-09T07:46:11;12.55;;;5.88;;
71769;SDS011;66386;52.122;5.420;2023-10-09T07:49:00;10.82;;;5.40;;
71769;SDS011;66386;52.122;5.420;2023-10-09T07:51:36;11.23;;;5.28;;
71769;SDS011;66386;52.122;5.420;2023-10-09T07:54:04;10.35;;;5.30;;
71769;SDS011;66386;52.122;5.420;2023-10-09T07:59:13;10.27;;;5.25;;
71769;SDS011;66386;52.122;5.420;2023-10-09T08:01:41;10.70;;;5.72;;
71769;SDS011;66386;52.122;5.420;2023-10-09T08:04:19;6.80;;;5.53;;
71769;SDS011;66386;52.122;5.420;2023-10-09T08:07:04;9.02;;;5.45;;
71769;SDS011;66386;52.122;5.420;2023-10-09T08:09:55;13.77;;;5.80;;
71769;SDS011;66386;52.122;5.420;2023-10-09T08:12:40;11.00;;;5.38;;
71769;SDS011;66386;52.122;5.420;2023-10-09T08:15:16;10.95;;;5.13;;
71769;SDS011;66386;52.122;5.420;2023-10-09T08:17:51;11.52;;;5.63;;
71769;SDS011;66386;52.122;5.420;2023-10-09T08:20:26;8.23;;;5.20;;
71769;SDS011;66386;52.122;5.420;2023-10-09T08:22:54;9.20;;;4.70;;
71769;SDS011;66386;52.122;5.420;2023-10-09T08:25:22;12.30;;;5.55;;
71769;SDS011;66386;52.122;5.420;2023-10-09T08:27:54;10.35;;;5.78;;
71769;SDS011;66386;52.122;5.420;2023-10-09T08:30:36;10.15;;;5.22;;
71769;SDS011;66386;52.122;5.420;2023-10-09T08:33:19;8.77;;;5.22;;
71769;SDS011;66386;52.122;5.420;2023-10-09T08:35:54;12.33;;;5.37;;
71769;SDS011;66386;52.122;5.420;2023-10-09T08:38:28;12.77;;;5.53;;
71769;SDS011;66386;52.122;5.420;2023-10-09T08:41:20;10.90;;;5.18;;
71769;SDS011;66386;52.122;5.420;2023-10-09T08:43:50;10.10;;;5.40;;
71769;SDS011;66386;52.122;5.420;2023-10-09T08:46:25;10.52;;;5.68;;
71769;SDS011;66386;52.122;5.420;2023-10-09T08:48:56;11.20;;;5.40;;
71769;SDS011;66386;52.122;5.420;2023-10-09T08:51:25;8.65;;;4.88;;
71769;SDS011;66386;52.122;5.420;2023-10-09T08:53:52;12.68;;;4.60;;
71769;SDS011;66386;52.122;5.420;2023-10-09T08:56:20;8.70;;;4.65;;
71769;SDS011;66386;52.122;5.420;2023-10-09T08:58:55;11.68;;;4.70;;
71769;SDS011;66386;52.122;5.420;2023-10-09T09:01:23;17.93;;;5.27;;
71769;SDS011;66386;52.122;5.420;2023-10-09T09:03:52;9.60;;;4.95;;
71769;SDS011;66386;52.122;5.420;2023-10-09T09:06:21;9.68;;;4.75;;
71769;SDS011;66386;52.122;5.420;2023-10-09T09:08:49;8.13;;;4.60;;
71769;SDS011;66386;52.122;5.420;2023-10-09T09:11:26;7.53;;;4.70;;
71769;SDS011;66386;52.122;5.420;2023-10-09T09:16:25;8.90;;;4.35;;
71769;SDS011;66386;52.122;5.420;2023-10-09T09:18:59;8.38;;;4.18;;
71769;SDS011;66386;52.122;5.420;2023-10-09T09:21:37;9.75;;;5.00;;
71769;SDS011;66386;52.122;5.420;2023-10-09T09:24:05;10.70;;;4.40;;
71769;SDS011;66386;52.122;5.420;2023-10-09T09:26:53;7.97;;;4.27;;
71769;SDS011;66386;52.122;5.420;2023-10-09T09:32:06;12.13;;;4.68;;
71769;SDS011;66386;52.122;5.420;2023-10-09T09:34:44;9.50;;;4.20;;
71769;SDS011;66386;52.122;5.420;2023-10-09T09:37:19;8.88;;;4.20;;
71769;SDS011;66386;52.122;5.420;2023-10-09T09:39:47;8.87;;;4.53;;
71769;SDS011;66386;52.122;5.420;2023-10-09T09:42:21;8.25;;;3.92;;
71769;SDS011;66386;52.122;5.420;2023-10-09T09:44:52;9.48;;;3.92;;
71769;SDS011;66386;52.122;5.420;2023-10-09T09:47:19;9.35;;;4.43;;
71769;SDS011;66386;52.122;5.420;2023-10-09T09:49:56;9.10;;;4.43;;
71769;SDS011;66386;52.122;5.420;2023-10-09T09:52:29;7.67;;;4.50;;
71769;SDS011;66386;52.122;5.420;2023-10-09T09:55:09;9.63;;;4.05;;
71769;SDS011;66386;52.122;5.420;2023-10-09T09:57:44;8.55;;;3.95;;
71769;SDS011;66386;52.122;5.420;2023-10-09T10:00:18;11.93;;;4.63;;
71769;SDS011;66386;52.122;5.420;2023-10-09T10:02:59;9.05;;;3.88;;
71769;SDS011;66386;52.122;5.420;2023-10-09T10:05:32;10.03;;;4.40;;
71769;SDS011;66386;52.122;5.420;2023-10-09T10:08:00;12.18;;;4.28;;
71769;SDS011;66386;52.122;5.420;2023-10-09T10:10:35;9.25;;;3.80;;
71769;SDS011;66386;52.122;5.420;2023-10-09T10:13:14;8.90;;;4.50;;
71769;SDS011;66386;52.122;5.420;2023-10-09T10:15:56;9.07;;;4.13;;
71769;SDS011;66386;52.122;5.420;2023-10-09T10:18:24;9.70;;;4.17;;
71769;SDS011;66386;52.122;5.420;2023-10-09T10:21:09;9.10;;;3.72;;
71769;SDS011;66386;52.122;5.420;2023-10-09T10:24:00;8.65;;;3.45;;
71769;SDS011;66386;52.122;5.420;2023-10-09T10:26:39;7.70;;;3.58;;
71769;SDS011;66386;52.122;5.420;2023-10-09T10:29:21;8.55;;;3.72;;
71769;SDS011;66386;52.122;5.420;2023-10-09T10:32:01;8.30;;;3.73;;
71769;SDS011;66386;52.122;5.420;2023-10-09T10:37:38;9.13;;;3.65;;
71769;SDS011;66386;52.122;5.420;2023-10-09T10:40:10;6.47;;;3.75;;
71769;SDS011;66386;52.122;5.420;2023-10-09T10:42:46;6.28;;;3.55;;
71769;SDS011;66386;52.122;5.420;2023-10-09T10:45:35;9.43;;;3.70;;
71769;SDS011;66386;52.122;5.420;2023-10-09T10:48:05;9.45;;;3.75;;
71769;SDS011;66386;52.122;5.420;2023-10-09T10:50:36;8.75;;;3.22;;
71769;SDS011;66386;52.122;5.420;2023-10-09T10:53:07;8.38;;;3.38;;
71769;SDS011;66386;52.122;5.420;2023-10-09T10:55:54;12.15;;;3.40;;
71769;SDS011;66386;52.122;5.420;2023-10-09T10:58:53;6.03;;;3.10;;
71769;SDS011;66386;52.122;5.420;2023-10-09T11:01:33;9.20;;;3.35;;
71769;SDS011;66386;52.122;5.420;2023-10-09T11:04:19;12.90;;;3.42;;
71769;SDS011;66386;52.122;5.420;2023-10-09T11:06:56;6.65;;;3.67;;
71769;SDS011;66386;52.122;5.420;2023-10-09T11:09:42;9.00;;;3.45;;
71769;SDS011;66386;52.122;5.420;2023-10-09T11:12:26;6.73;;;3.30;;
71769;SDS011;66386;52.122;5.420;2023-10-09T11:15:08;9.75;;;3.33;;
71769;SDS011;66386;52.122;5.420;2023-10-09T11:20:25;8.23;;;3.33;;
71769;SDS011;66386;52.122;5.420;2023-10-09T11:22:58;7.45;;;3.28;;
71769;SDS011;66386;52.122;5.420;2023-10-09T11:25:34;7.97;;;3.33;;
71769;SDS011;66386;52.122;5.420;2023-10-09T11:28:02;8.90;;;3.20;;
71769;SDS011;66386;52.122;5.420;2023-10-09T11:30:48;7.82;;;2.92;;
71769;SDS011;66386;52.122;5.420;2023-10-09T11:33:21;6.00;;;3.25;;
71769;SDS011;66386;52.122;5.420;2023-10-09T11:35:55;8.20;;;3.38;;
71769;SDS011;66386;52.122;5.420;2023-10-09T11:38:23;6.27;;;3.10;;
71769;SDS011;66386;52.122;5.420;2023-10-09T11:40:50;4.35;;;3.50;;
71769;SDS011;66386;52.122;5.420;2023-10-09T11:43:20;6.40;;;3.10;;
71769;SDS011;66386;52.122;5.420;2023-10-09T11:45:52;9.35;;;3.20;;
71769;SDS011;66386;52.122;5.420;2023-10-09T11:48:22;6.47;;;3.10;;
71769;SDS011;66386;52.122;5.420;2023-10-09T11:50:59;7.83;;;3.53;;
71769;SDS011;66386;52.122;5.420;2023-10-09T11:53:28;8.10;;;2.97;;
71769;SDS011;66386;52.122;5.420;2023-10-09T11:55:54;8.00;;;3.80;;
71769;SDS011;66386;52.122;5.420;2023-10-09T11:58:22;9.25;;;3.17;;
71769;SDS011;66386;52.122;5.420;2023-10-09T12:00:53;6.53;;;3.83;;
71769;SDS011;66386;52.122;5.420;2023-10-09T12:03:26;9.07;;;3.40;;
71769;SDS011;66386;52.122;5.420;2023-10-09T12:06:00;8.90;;;3.28;;
71769;SDS011;66386;52.122;5.420;2023-10-09T12:08:41;8.13;;;3.38;;
71769;SDS011;66386;52.122;5.420;2023-10-09T12:11:08;9.07;;;3.20;;
71769;SDS011;66386;52.122;5.420;2023-10-09T12:13:36;8.05;;;3.40;;
71769;SDS011;66386;52.122;5.420;2023-10-09T12:16:08;7.00;;;3.10;;
71769;SDS011;66386;52.122;5.420;2023-10-09T12:18:41;8.70;;;3.47;;
71769;SDS011;66386;52.122;5.420;2023-10-09T12:21:09;9.38;;;3.63;;
71769;SDS011;66386;52.122;5.420;2023-10-09T12:23:42;9.45;;;3.05;;
71769;SDS011;66386;52.122;5.420;2023-10-09T12:26:11;10.10;;;3.55;;
71769;SDS011;66386;52.122;5.420;2023-10-09T12:28:41;7.60;;;3.17;;
71769;SDS011;66386;52.122;5.420;2023-10-09T12:31:13;8.63;;;3.15;;
71769;SDS011;66386;52.122;5.420;2023-10-09T12:33:46;6.45;;;3.00;;
71769;SDS011;66386;52.122;5.420;2023-10-09T12:36:14;11.32;;;3.38;;
71769;SDS011;66386;52.122;5.420;2023-10-09T12:38:47;4.57;;;2.67;;
71769;SDS011;66386;52.122;5.420;2023-10-09T12:41:20;9.13;;;3.30;;
71769;SDS011;66386;52.122;5.420;2023-10-09T12:43:55;6.82;;;3.08;;
71769;SDS011;66386;52.122;5.420;2023-10-09T12:46:27;5.75;;;3.22;;
71769;SDS011;66386;52.122;5.420;2023-10-09T12:48:54;8.35;;;3.60;;
71769;SDS011;66386;52.122;5.420;2023-10-09T12:51:22;7.15;;;2.92;;
71769;SDS011;66386;52.122;5.420;2023-10-09T12:53:52;7.47;;;2.63;;
71769;SDS011;66386;52.122;5.420;2023-10-09T12:56:26;7.38;;;3.15;;
71769;SDS011;66386;52.122;5.420;2023-10-09T12:59:05;9.23;;;3.33;;
71769;SDS011;66386;52.122;5.420;2023-10-09T13:01:33;5.43;;;2.83;;
71769;SDS011;66386;52.122;5.420;2023-10-09T13:06:42;10.10;;;3.40;;
71769;SDS011;66386;52.122;5.420;2023-10-09T13:09:13;6.95;;;3.40;;
71769;SDS011;66386;52.122;5.420;2023-10-09T13:11:42;8.93;;;3.22;;
71769;SDS011;66386;52.122;5.420;2023-10-09T13:14:10;6.07;;;3.00;;
71769;SDS011;66386;52.122;5.420;2023-10-09T13:16:49;6.88;;;3.30;;
71769;SDS011;66386;52.122;5.420;2023-10-09T13:19:17;6.83;;;3.10;;
71769;SDS011;66386;52.122;5.420;2023-10-09T13:21:43;8.32;;;3.50;;
71769;SDS011;66386;52.122;5.420;2023-10-09T13:24:10;9.85;;;2.97;;
71769;SDS011;66386;52.122;5.420;2023-10-09T13:26:42;10.07;;;3.97;;
71769;SDS011;66386;52.122;5.420;2023-10-09T13:29:13;6.72;;;3.17;;
71769;SDS011;66386;52.122;5.420;2023-10-09T13:31:43;12.77;;;3.53;;
71769;SDS011;66386;52.122;5.420;2023-10-09T13:34:14;11.07;;;3.88;;
71769;SDS011;66386;52.122;5.420;2023-10-09T13:36:43;15.30;;;5.00;;
71769;SDS011;66386;52.122;5.420;2023-10-09T13:39:19;7.75;;;3.10;;
71769;SDS011;66386;52.122;5.420;2023-10-09T13:41:54;7.35;;;3.38;;
71769;SDS011;66386;52.122;5.420;2023-10-09T13:44:31;8.57;;;3.40;;
71769;SDS011;66386;52.122;5.420;2023-10-09T13:47:00;7.28;;;2.67;;
71769;SDS011;66386;52.122;5.420;2023-10-09T13:49:28;7.88;;;3.17;;
71769;SDS011;66386;52.122;5.420;2023-10-09T13:51:58;10.07;;;3.13;;
71769;SDS011;66386;52.122;5.420;2023-10-09T13:54:27;7.13;;;3.17;;
71769;SDS011;66386;52.122;5.420;2023-10-09T13:57:06;9.20;;;3.30;;
71769;SDS011;66386;52.122;5.420;2023-10-09T13:59:34;7.15;;;3.65;;
71769;SDS011;66386;52.122;5.420;2023-10-09T14:02:02;12.55;;;3.53;;
71769;SDS011;66386;52.122;5.420;2023-10-09T14:04:36;8.15;;;2.85;;
71769;SDS011;66386;52.122;5.420;2023-10-09T14:07:03;6.20;;;3.08;;
71769;SDS011;66386;52.122;5.420;2023-10-09T14:09:32;7.63;;;3.53;;
71769;SDS011;66386;52.122;5.420;2023-10-09T14:12:05;7.65;;;2.78;;
71769;SDS011;66386;52.122;5.420;2023-10-09T14:14:37;8.65;;;3.03;;
71769;SDS011;66386;52.122;5.420;2023-10-09T14:17:14;10.40;;;3.25;;
71769;SDS011;66386;52.122;5.420;2023-10-09T14:19:41;10.70;;;3.38;;
71769;SDS011;66386;52.122;5.420;2023-10-09T14:22:14;11.10;;;3.13;;
71769;SDS011;66386;52.122;5.420;2023-10-09T14:24:45;10.57;;;3.20;;
71769;SDS011;66386;52.122;5.420;2023-10-09T14:27:13;8.50;;;3.50;;
71769;SDS011;66386;52.122;5.420;2023-10-09T14:29:47;10.45;;;3.38;;
71769;SDS011;66386;52.122;5.420;2023-10-09T14:32:14;6.25;;;3.17;;
71769;SDS011;66386;52.122;5.420;2023-10-09T14:34:42;7.80;;;2.90;;
71769;SDS011;66386;52.122;5.420;2023-10-09T14:37:17;10.02;;;3.40;;
71769;SDS011;66386;52.122;5.420;2023-10-09T14:39:45;7.18;;;3.53;;
71769;SDS011;66386;52.122;5.420;2023-10-09T14:42:15;10.20;;;3.53;;
71769;SDS011;66386;52.122;5.420;2023-10-09T14:44:42;11.25;;;4.20;;
71769;SDS011;66386;52.122;5.420;2023-10-09T14:47:11;9.50;;;3.37;;
71769;SDS011;66386;52.122;5.420;2023-10-09T14:49:40;9.10;;;3.50;;
71769;SDS011;66386;52.122;5.420;2023-10-09T14:52:10;10.60;;;3.50;;
71769;SDS011;66386;52.122;5.420;2023-10-09T14:54:37;6.55;;;3.55;;
71769;SDS011;66386;52.122;5.420;2023-10-09T14:57:04;10.68;;;4.03;;
71769;SDS011;66386;52.122;5.420;2023-10-09T14:59:32;9.53;;;3.70;;
71769;SDS011;66386;52.122;5.420;2023-10-09T15:01:59;10.13;;;4.43;;
71769;SDS011;66386;52.122;5.420;2023-10-09T15:04:26;6.82;;;3.78;;
71769;SDS011;66386;52.122;5.420;2023-10-09T15:06:53;7.57;;;3.35;;
71769;SDS011;66386;52.122;5.420;2023-10-09T15:09:19;5.85;;;3.20;;
71769;SDS011;66386;52.122;5.420;2023-10-09T15:11:49;11.63;;;4.10;;
71769;SDS011;66386;52.122;5.420;2023-10-09T15:14:17;10.32;;;3.67;;
71769;SDS011;66386;52.122;5.420;2023-10-09T15:16:45;6.55;;;3.67;;
71769;SDS011;66386;52.122;5.420;2023-10-09T15:19:12;11.02;;;4.22;;
71769;SDS011;66386;52.122;5.420;2023-10-09T15:21:40;10.68;;;4.32;;
71769;SDS011;66386;52.122;5.420;2023-10-09T15:24:13;9.00;;;3.67;;
71769;SDS011;66386;52.122;5.420;2023-10-09T15:26:45;15.18;;;4.43;;
71769;SDS011;66386;52.122;5.420;2023-10-09T15:29:24;6.97;;;3.65;;
71769;SDS011;66386;52.122;5.420;2023-10-09T15:32:00;10.27;;;4.13;;
71769;SDS011;66386;52.122;5.420;2023-10-09T15:34:32;10.60;;;3.92;;
71769;SDS011;66386;52.122;5.420;2023-10-09T15:37:00;10.33;;;3.77;;
71769;SDS011;66386;52.122;5.420;2023-10-09T15:39:29;8.05;;;3.60;;
71769;SDS011;66386;52.122;5.420;2023-10-09T15:41:58;8.85;;;3.97;;